sensor_id;sensor_type;location;lat;lon;timestamp;pressure;altitude;pressure_sealevel;temperature;humidity
13080;BME280;6606;49.154;9.280;2023-07-31T03:30:18;99506.16;;;16.46;100.00
13080;BME280;6606;49.154;9.280;2023-07-31T03:32:59;99508.50;;;16.51;100.00
13080;BME280;6606;49.154;9.280;2023-07-31T03:35:41;99512.38;;;16.47;100.00
13080;BME280;6606;49.154;9.280;2023-07-31T03:38:22;99502.63;;;16.57;100.00
13080;BME280;6606;49.154;9.280;2023-07-31T03:41:03;99509.19;;;16.64;100.00
13080;BME280;6606;49.154;9.280;2023-07-31T03:49:23;99504.91;;;16.62;100.00
13080;BME280;6606;49.154;9.280;2023-07-31T03:52:05;99505.16;;;16.59;100.00
13080;BME280;6606;49.154;9.280;2023-07-31T03:54:46;99504.19;;;16.60;100.00
13080;BME280;6606;49.154;9.280;2023-07-31T03:57:27;99493.47;;;16.60;100.00
13080;BME280;6606;49.154;9.280;2023-07-31T04:00:09;99497.25;;;16.57;100.00
13080;BME280;6606;49.154;9.280;2023-07-31T04:02:55;99502.03;;;16.54;100.00
13080;BME280;6606;49.154;9.280;2023-07-31T04:09:11;99496.28;;;16.47;100.00
13080;BME280;6606;49.154;9.280;2023-07-31T04:11:52;99505.31;;;16.46;100.00
13080;BME280;6606;49.154;9.280;2023-07-31T04:14:33;99508.94;;;16.45;100.00
13080;BME280;6606;49.154;9.280;2023-07-31T04:17:14;99511.88;;;16.42;100.00
13080;BME280;6606;49.154;9.280;2023-07-31T04:19:55;99503.25;;;16.38;100.00
13080;BME280;6606;49.154;9.280;2023-07-31T04:22:36;99505.53;;;16.43;100.00
13080;BME280;6606;49.154;9.280;2023-07-31T04:25:18;99513.59;;;16.54;100.00
13080;BME280;6606;49.154;9.280;2023-07-31T04:28:14;99507.25;;;16.44;100.00
13080;BME280;6606;49.154;9.280;2023-07-31T04:30:56;99514.94;;;16.48;100.00
13080;BME280;6606;49.154;9.280;2023-07-31T04:33:37;99507.19;;;16.66;100.00
13080;BME280;6606;49.154;9.280;2023-07-31T04:36:19;99501.19;;;16.74;100.00
13080;BME280;6606;49.154;9.280;2023-07-31T04:39:01;99500.16;;;16.86;100.00
13080;BME280;6606;49.154;9.280;2023-07-31T04:41:44;99505.00;;;16.92;100.00
13080;BME280;6606;49.154;9.280;2023-07-31T04:44:26;99495.53;;;16.88;100.00
13080;BME280;6606;49.154;9.280;2023-07-31T04:47:08;99484.19;;;16.85;100.00
13080;BME280;6606;49.154;9.280;2023-07-31T04:49:49;99491.91;;;16.78;100.00
13080;BME280;6606;49.154;9.280;2023-07-31T04:52:31;99490.28;;;16.87;100.00
13080;BME280;6606;49.154;9.280;2023-07-31T04:55:13;99490.22;;;16.98;100.00
13080;BME280;6606;49.154;9.280;2023-07-31T04:57:57;99493.88;;;16.97;100.00
13080;BME280;6606;49.154;9.280;2023-07-31T05:00:39;99500.47;;;16.93;100.00
13080;BME280;6606;49.154;9.280;2023-07-31T05:03:21;99492.31;;;16.94;100.00
13080;BME280;6606;49.154;9.280;2023-07-31T05:06:03;99485.13;;;16.95;100.00
13080;BME280;6606;49.154;9.280;2023-07-31T05:08:44;99485.13;;;16.95;100.00
13080;BME280;6606;49.154;9.280;2023-07-31T05:11:26;99472.97;;;16.91;100.00
13080;BME280;6606;49.154;9.280;2023-07-31T05:14:09;99480.28;;;16.89;100.00
13080;BME280;6606;49.154;9.280;2023-07-31T05:16:51;99480.22;;;17.00;100.00
13080;BME280;6606;49.154;9.280;2023-07-31T05:19:33;99473.97;;;17.21;100.00
13080;BME280;6606;49.154;9.280;2023-07-31T05:22:15;99479.25;;;17.32;100.00
13080;BME280;6606;49.154;9.280;2023-07-31T05:24:57;99481.16;;;17.41;100.00
13080;BME280;6606;49.154;9.280;2023-07-31T05:27:39;99469.63;;;17.50;100.00
13080;BME280;6606;49.154;9.280;2023-07-31T05:30:22;99470.53;;;17.61;100.00
13080;BME280;6606;49.154;9.280;2023-07-31T05:33:04;99478.03;;;17.67;100.00
13080;BME280;6606;49.154;9.280;2023-07-31T05:35:45;99477.59;;;17.62;100.00
13080;BME280;6606;49.154;9.280;2023-07-31T05:38:27;99475.78;;;17.72;100.00
13080;BME280;6606;49.154;9.280;2023-07-31T05:41:09;99478.63;;;17.70;100.00
13080;BME280;6606;49.154;9.280;2023-07-31T05:43:51;99479.41;;;18.01;100.00
13080;BME280;6606;49.154;9.280;2023-07-31T05:46:34;99478.88;;;18.08;100.00
13080;BME280;6606;49.154;9.280;2023-07-31T05:49:16;99484.84;;;18.21;100.00
13080;BME280;6606;49.154;9.280;2023-07-31T05:51:57;99471.09;;;18.05;100.00
13080;BME280;6606;49.154;9.280;2023-07-31T05:54:39;99482.69;;;18.15;100.00
13080;BME280;6606;49.154;9.280;2023-07-31T05:57:21;99479.41;;;18.01;100.00
13080;BME280;6606;49.154;9.280;2023-07-31T06:00:03;99475.16;;;17.89;100.00
13080;BME280;6606;49.154;9.280;2023-07-31T06:02:46;99480.81;;;17.86;100.00
13080;BME280;6606;49.154;9.280;2023-07-31T06:05:28;99471.94;;;18.15;100.00
13080;BME280;6606;49.154;9.280;2023-07-31T06:08:10;99476.81;;;18.40;100.00
13080;BME280;6606;49.154;9.280;2023-07-31T06:10:52;99474.81;;;18.33;100.00
13080;BME280;6606;49.154;9.280;2023-07-31T06:13:34;99477.69;;;18.60;100.00
13080;BME280;6606;49.154;9.280;2023-07-31T06:16:15;99479.25;;;18.92;100.00
13080;BME280;6606;49.154;9.280;2023-07-31T06:18:59;99476.50;;;19.21;100.00
13080;BME280;6606;49.154;9.280;2023-07-31T06:21:40;99480.88;;;19.32;100.00
13080;BME280;6606;49.154;9.280;2023-07-31T06:24:24;99481.94;;;19.49;100.00
13080;BME280;6606;49.154;9.280;2023-07-31T06:27:06;99477.69;;;19.56;100.00
13080;BME280;6606;49.154;9.280;2023-07-31T06:29:48;99468.59;;;19.57;100.00
13080;BME280;6606;49.154;9.280;2023-07-31T06:32:30;99474.41;;;19.90;100.00
13080;BME280;6606;49.154;9.280;2023-07-31T06:35:13;99479.13;;;20.33;100.00
13080;BME280;6606;49.154;9.280;2023-07-31T06:37:55;99461.41;;;20.67;100.00
13080;BME280;6606;49.154;9.280;2023-07-31T06:40:36;99460.16;;;20.61;100.00
13080;BME280;6606;49.154;9.280;2023-07-31T06:43:18;99467.94;;;21.00;100.00
13080;BME280;6606;49.154;9.280;2023-07-31T06:46:04;99473.66;;;21.49;100.00
13080;BME280;6606;49.154;9.280;2023-07-31T06:48:47;99466.25;;;20.99;100.00
13080;BME280;6606;49.154;9.280;2023-07-31T06:51:30;99461.47;;;21.19;100.00
13080;BME280;6606;49.154;9.280;2023-07-31T06:54:12;99458.31;;;21.58;100.00
13080;BME280;6606;49.154;9.280;2023-07-31T06:56:54;99458.19;;;21.93;100.00
13080;BME280;6606;49.154;9.280;2023-07-31T06:59:36;99453.94;;;22.42;100.00
13080;BME280;6606;49.154;9.280;2023-07-31T07:02:17;99454.44;;;22.78;92.36
13080;BME280;6606;49.154;9.280;2023-07-31T07:04:59;99455.59;;;22.43;93.76
13080;BME280;6606;49.154;9.280;2023-07-31T07:07:43;99457.25;;;22.27;94.40
13080;BME280;6606;49.154;9.280;2023-07-31T07:10:25;99460.63;;;22.29;95.58
13080;BME280;6606;49.154;9.280;2023-07-31T07:13:07;99455.00;;;22.14;97.34
13080;BME280;6606;49.154;9.280;2023-07-31T07:15:48;99460.94;;;22.18;95.26
13080;BME280;6606;49.154;9.280;2023-07-31T07:18:30;99453.94;;;21.57;98.68
13080;BME280;6606;49.154;9.280;2023-07-31T07:21:12;99456.78;;;21.81;100.00
13080;BME280;6606;49.154;9.280;2023-07-31T07:23:57;99456.09;;;21.53;100.00
13080;BME280;6606;49.154;9.280;2023-07-31T07:26:39;99452.97;;;22.08;99.43
13080;BME280;6606;49.154;9.280;2023-07-31T07:29:20;99462.41;;;22.47;100.00
13080;BME280;6606;49.154;9.280;2023-07-31T07:32:02;99462.75;;;22.68;87.12
13080;BME280;6606;49.154;9.280;2023-07-31T07:34:44;99453.09;;;22.74;84.13
13080;BME280;6606;49.154;9.280;2023-07-31T07:37:26;99447.59;;;22.25;89.65
13080;BME280;6606;49.154;9.280;2023-07-31T07:40:10;99445.97;;;23.22;83.33
13080;BME280;6606;49.154;9.280;2023-07-31T07:42:51;99439.41;;;24.80;73.28
13080;BME280;6606;49.154;9.280;2023-07-31T07:45:33;99437.56;;;25.93;63.10
13080;BME280;6606;49.154;9.280;2023-07-31T07:48:15;99448.06;;;26.97;56.48
13080;BME280;6606;49.154;9.280;2023-07-31T07:50:57;99452.06;;;27.01;59.20
13080;BME280;6606;49.154;9.280;2023-07-31T07:53:39;99443.03;;;26.72;57.10
13080;BME280;6606;49.154;9.280;2023-07-31T07:56:23;99443.09;;;25.70;60.23
13080;BME280;6606;49.154;9.280;2023-07-31T07:59:04;99441.84;;;25.87;60.68
13080;BME280;6606;49.154;9.280;2023-07-31T08:01:46;99450.78;;;25.52;61.85
13080;BME280;6606;49.154;9.280;2023-07-31T08:04:28;99431.16;;;25.27;64.53
13080;BME280;6606;49.154;9.280;2023-07-31T08:07:10;99428.66;;;25.25;64.14
13080;BME280;6606;49.154;9.280;2023-07-31T08:09:52;99431.75;;;25.66;60.26
13080;BME280;6606;49.154;9.280;2023-07-31T08:12:35;99416.69;;;24.96;62.46
13080;BME280;6606;49.154;9.280;2023-07-31T08:15:17;99421.59;;;24.32;73.29
13080;BME280;6606;49.154;9.280;2023-07-31T08:17:59;99424.94;;;26.07;58.37
13080;BME280;6606;49.154;9.280;2023-07-31T08:20:41;99425.63;;;25.20;60.24
13080;BME280;6606;49.154;9.280;2023-07-31T08:23:22;99423.38;;;25.23;63.32
13080;BME280;6606;49.154;9.280;2023-07-31T08:26:04;99422.28;;;24.95;67.02
13080;BME280;6606;49.154;9.280;2023-07-31T08:28:47;99412.78;;;25.14;67.99
13080;BME280;6606;49.154;9.280;2023-07-31T08:31:29;99410.94;;;24.91;68.82
13080;BME280;6606;49.154;9.280;2023-07-31T08:34:11;99416.16;;;23.69;76.20
13080;BME280;6606;49.154;9.280;2023-07-31T08:36:53;99408.13;;;23.45;82.38
13080;BME280;6606;49.154;9.280;2023-07-31T08:39:34;99414.47;;;24.08;76.18
13080;BME280;6606;49.154;9.280;2023-07-31T08:42:20;99419.69;;;23.31;80.69
13080;BME280;6606;49.154;9.280;2023-07-31T08:45:04;99403.84;;;24.44;71.50
13080;BME280;6606;49.154;9.280;2023-07-31T08:47:47;99415.69;;;24.74;69.01
13080;BME280;6606;49.154;9.280;2023-07-31T08:50:29;99404.50;;;24.23;70.84
13080;BME280;6606;49.154;9.280;2023-07-31T08:53:11;99407.38;;;23.59;78.17
13080;BME280;6606;49.154;9.280;2023-07-31T08:55:53;99410.13;;;23.51;80.50
13080;BME280;6606;49.154;9.280;2023-07-31T08:58:36;99398.69;;;23.33;78.53
13080;BME280;6606;49.154;9.280;2023-07-31T09:01:20;99403.13;;;23.17;83.96
13080;BME280;6606;49.154;9.280;2023-07-31T09:04:04;99396.66;;;23.74;83.61
13080;BME280;6606;49.154;9.280;2023-07-31T09:06:47;99391.59;;;23.71;83.31
13080;BME280;6606;49.154;9.280;2023-07-31T09:09:29;99385.75;;;23.82;80.99
13080;BME280;6606;49.154;9.280;2023-07-31T09:12:11;99389.34;;;24.37;79.26
13080;BME280;6606;49.154;9.280;2023-07-31T09:14:53;99386.94;;;24.42;76.18
13080;BME280;6606;49.154;9.280;2023-07-31T09:17:36;99382.63;;;24.25;74.50
13080;BME280;6606;49.154;9.280;2023-07-31T09:20:19;99380.78;;;25.16;67.80
13080;BME280;6606;49.154;9.280;2023-07-31T09:23:06;99373.44;;;24.72;71.09
13080;BME280;6606;49.154;9.280;2023-07-31T09:25:48;99373.66;;;24.85;74.36
13080;BME280;6606;49.154;9.280;2023-07-31T09:28:31;99379.78;;;25.47;67.11
13080;BME280;6606;49.154;9.280;2023-07-31T09:31:13;99378.94;;;25.31;67.89
13080;BME280;6606;49.154;9.280;2023-07-31T09:33:56;99371.63;;;25.61;66.00
13080;BME280;6606;49.154;9.280;2023-07-31T09:36:40;99372.53;;;24.79;70.57
13080;BME280;6606;49.154;9.280;2023-07-31T09:39:22;99366.91;;;25.11;71.34
13080;BME280;6606;49.154;9.280;2023-07-31T09:42:04;99369.00;;;25.09;68.31
13080;BME280;6606;49.154;9.280;2023-07-31T09:44:46;99361.44;;;24.43;73.41
13080;BME280;6606;49.154;9.280;2023-07-31T09:47:28;99351.53;;;24.88;72.10
13080;BME280;6606;49.154;9.280;2023-07-31T09:50:14;99352.13;;;24.98;68.53
13080;BME280;6606;49.154;9.280;2023-07-31T09:52:56;99350.88;;;25.16;68.16
13080;BME280;6606;49.154;9.280;2023-07-31T09:55:39;99362.13;;;25.72;64.23
13080;BME280;6606;49.154;9.280;2023-07-31T09:58:22;99350.81;;;25.54;66.66
13080;BME280;6606;49.154;9.280;2023-07-31T10:01:04;99345.75;;;26.23;61.86
13080;BME280;6606;49.154;9.280;2023-07-31T10:03:46;99354.16;;;25.56;62.97
13080;BME280;6606;49.154;9.280;2023-07-31T10:06:30;99339.94;;;25.24;68.29
13080;BME280;6606;49.154;9.280;2023-07-31T10:09:15;99337.78;;;25.49;66.74
13080;BME280;6606;49.154;9.280;2023-07-31T10:12:00;99330.00;;;25.46;63.23
13080;BME280;6606;49.154;9.280;2023-07-31T10:14:43;99339.38;;;25.14;64.91
13080;BME280;6606;49.154;9.280;2023-07-31T10:17:26;99328.13;;;24.87;67.95
13080;BME280;6606;49.154;9.280;2023-07-31T10:20:09;99332.63;;;24.19;73.92
13080;BME280;6606;49.154;9.280;2023-07-31T10:22:54;99326.31;;;24.65;72.04
13080;BME280;6606;49.154;9.280;2023-07-31T10:25:36;99324.19;;;24.52;67.33
13080;BME280;6606;49.154;9.280;2023-07-31T10:28:18;99318.88;;;25.11;63.93
13080;BME280;6606;49.154;9.280;2023-07-31T10:31:01;99330.31;;;25.73;65.36
13080;BME280;6606;49.154;9.280;2023-07-31T10:33:44;99318.53;;;24.62;63.28
13080;BME280;6606;49.154;9.280;2023-07-31T10:36:26;99325.63;;;24.25;67.03
13080;BME280;6606;49.154;9.280;2023-07-31T10:39:33;99313.72;;;24.49;68.30
13080;BME280;6606;49.154;9.280;2023-07-31T10:42:15;99303.22;;;24.98;69.43
13080;BME280;6606;49.154;9.280;2023-07-31T10:44:58;99307.41;;;24.86;64.71
13080;BME280;6606;49.154;9.280;2023-07-31T10:47:43;99301.22;;;25.73;61.80
13080;BME280;6606;49.154;9.280;2023-07-31T10:50:26;99309.47;;;25.43;61.67
13080;BME280;6606;49.154;9.280;2023-07-31T10:53:22;99310.59;;;25.05;61.76
13080;BME280;6606;49.154;9.280;2023-07-31T10:56:07;99316.84;;;24.61;65.02
13080;BME280;6606;49.154;9.280;2023-07-31T10:59:00;99320.88;;;24.65;63.06
13080;BME280;6606;49.154;9.280;2023-07-31T11:01:52;99313.13;;;24.62;63.28
13080;BME280;6606;49.154;9.280;2023-07-31T11:04:34;99297.59;;;24.85;65.52
13080;BME280;6606;49.154;9.280;2023-07-31T11:07:15;99301.59;;;25.34;63.83
13080;BME280;6606;49.154;9.280;2023-07-31T11:09:57;99305.91;;;25.13;62.51
13080;BME280;6606;49.154;9.280;2023-07-31T11:12:40;99310.56;;;24.60;66.39
13080;BME280;6606;49.154;9.280;2023-07-31T11:15:22;99295.03;;;24.54;67.07
13080;BME280;6606;49.154;9.280;2023-07-31T11:18:07;99297.28;;;24.65;71.27
13080;BME280;6606;49.154;9.280;2023-07-31T11:20:50;99292.41;;;25.05;66.39
13080;BME280;6606;49.154;9.280;2023-07-31T11:23:32;99284.56;;;24.95;65.20
13080;BME280;6606;49.154;9.280;2023-07-31T11:26:14;99299.53;;;25.21;62.94
13080;BME280;6606;49.154;9.280;2023-07-31T11:28:58;99305.59;;;25.53;61.01
13080;BME280;6606;49.154;9.280;2023-07-31T11:31:42;99301.75;;;25.62;60.64
13080;BME280;6606;49.154;9.280;2023-07-31T11:34:23;99290.44;;;25.43;59.94
13080;BME280;6606;49.154;9.280;2023-07-31T11:37:05;99283.31;;;26.00;56.50
13080;BME280;6606;49.154;9.280;2023-07-31T11:39:58;99290.22;;;25.81;59.59
13080;BME280;6606;49.154;9.280;2023-07-31T11:42:40;99282.91;;;25.82;61.81
13080;BME280;6606;49.154;9.280;2023-07-31T11:45:26;99279.41;;;25.66;58.07
13080;BME280;6606;49.154;9.280;2023-07-31T11:48:09;99279.56;;;25.43;59.25
13080;BME280;6606;49.154;9.280;2023-07-31T11:50:51;99275.06;;;25.51;60.28
13080;BME280;6606;49.154;9.280;2023-07-31T11:53:37;99283.16;;;24.99;61.03
13080;BME280;6606;49.154;9.280;2023-07-31T11:56:20;99276.88;;;24.99;60.22
13080;BME280;6606;49.154;9.280;2023-07-31T11:59:02;99280.81;;;25.11;63.02
13080;BME280;6606;49.154;9.280;2023-07-31T12:01:47;99264.41;;;25.56;59.49
13080;BME280;6606;49.154;9.280;2023-07-31T12:04:30;99252.53;;;25.78;56.04
13080;BME280;6606;49.154;9.280;2023-07-31T12:07:12;99257.19;;;25.12;60.47
13080;BME280;6606;49.154;9.280;2023-07-31T12:09:54;99250.63;;;25.94;61.28
13080;BME280;6606;49.154;9.280;2023-07-31T12:12:36;99250.88;;;26.27;58.59
13080;BME280;6606;49.154;9.280;2023-07-31T12:15:18;99245.59;;;24.73;60.08
13080;BME280;6606;49.154;9.280;2023-07-31T12:18:04;99252.25;;;25.52;61.70
13080;BME280;6606;49.154;9.280;2023-07-31T12:20:47;99233.88;;;25.75;61.80
13080;BME280;6606;49.154;9.280;2023-07-31T12:23:31;99239.56;;;25.80;60.42
13080;BME280;6606;49.154;9.280;2023-07-31T12:26:14;99239.84;;;25.64;58.74
13080;BME280;6606;49.154;9.280;2023-07-31T12:28:56;99247.91;;;24.76;62.99
13080;BME280;6606;49.154;9.280;2023-07-31T12:31:41;99239.50;;;24.86;63.99
13080;BME280;6606;49.154;9.280;2023-07-31T12:34:24;99235.06;;;25.15;63.61
13080;BME280;6606;49.154;9.280;2023-07-31T12:37:07;99231.78;;;25.05;61.05
13080;BME280;6606;49.154;9.280;2023-07-31T12:39:49;99228.56;;;25.16;63.52
13080;BME280;6606;49.154;9.280;2023-07-31T12:42:30;99217.53;;;25.02;66.36
13080;BME280;6606;49.154;9.280;2023-07-31T12:45:12;99222.59;;;25.35;62.56
13080;BME280;6606;49.154;9.280;2023-07-31T12:47:54;99220.97;;;25.62;64.19
13080;BME280;6606;49.154;9.280;2023-07-31T12:50:37;99213.06;;;25.67;61.60
13080;BME280;6606;49.154;9.280;2023-07-31T12:53:19;99205.50;;;25.41;62.79
13080;BME280;6606;49.154;9.280;2023-07-31T12:56:01;99198.63;;;25.09;65.31
13080;BME280;6606;49.154;9.280;2023-07-31T12:58:43;99188.31;;;25.05;64.70
13080;BME280;6606;49.154;9.280;2023-07-31T13:01:24;99193.06;;;25.54;62.44
13080;BME280;6606;49.154;9.280;2023-07-31T13:04:07;99184.94;;;26.03;63.70
13080;BME280;6606;49.154;9.280;2023-07-31T13:06:50;99192.28;;;25.81;60.58
13080;BME280;6606;49.154;9.280;2023-07-31T13:09:32;99181.63;;;25.86;61.70
13080;BME280;6606;49.154;9.280;2023-07-31T13:12:14;99185.63;;;25.41;61.42
13080;BME280;6606;49.154;9.280;2023-07-31T13:14:55;99187.53;;;25.26;64.95
13080;BME280;6606;49.154;9.280;2023-07-31T13:17:37;99169.56;;;25.46;61.32
13080;BME280;6606;49.154;9.280;2023-07-31T13:20:19;99174.03;;;25.54;63.97
13080;BME280;6606;49.154;9.280;2023-07-31T13:23:02;99175.84;;;25.25;63.27
13080;BME280;6606;49.154;9.280;2023-07-31T13:25:44;99168.94;;;25.29;60.92
13080;BME280;6606;49.154;9.280;2023-07-31T13:28:26;99170.41;;;25.47;61.81
13080;BME280;6606;49.154;9.280;2023-07-31T13:31:07;99166.66;;;25.91;61.59
13080;BME280;6606;49.154;9.280;2023-07-31T13:33:51;99166.66;;;25.91;63.72
13080;BME280;6606;49.154;9.280;2023-07-31T13:36:33;99161.06;;;25.77;62.52
13080;BME280;6606;49.154;9.280;2023-07-31T13:39:18;99164.13;;;25.10;61.05
13080;BME280;6606;49.154;9.280;2023-07-31T13:42:00;99173.28;;;24.87;67.30
13080;BME280;6606;49.154;9.280;2023-07-31T13:44:42;99171.97;;;24.68;65.08
13080;BME280;6606;49.154;9.280;2023-07-31T13:47:24;99156.72;;;24.82;66.13
13080;BME280;6606;49.154;9.280;2023-07-31T13:50:06;99160.09;;;24.54;67.54
13080;BME280;6606;49.154;9.280;2023-07-31T13:52:48;99154.16;;;24.80;64.91
13080;BME280;6606;49.154;9.280;2023-07-31T13:55:31;99153.34;;;24.80;66.48
13080;BME280;6606;49.154;9.280;2023-07-31T13:58:13;99144.53;;;24.78;65.58
13080;BME280;6606;49.154;9.280;2023-07-31T14:00:54;99143.00;;;24.90;64.08
13080;BME280;6606;49.154;9.280;2023-07-31T14:03:36;99140.41;;;24.82;68.43
13080;BME280;6606;49.154;9.280;2023-07-31T14:06:18;99131.38;;;24.96;64.66
13080;BME280;6606;49.154;9.280;2023-07-31T14:09:00;99132.94;;;24.54;68.43
13080;BME280;6606;49.154;9.280;2023-07-31T14:11:44;99131.34;;;24.60;70.43
13080;BME280;6606;49.154;9.280;2023-07-31T14:14:26;99127.13;;;24.57;73.82
13080;BME280;6606;49.154;9.280;2023-07-31T14:17:07;99133.38;;;24.73;70.72
13080;BME280;6606;49.154;9.280;2023-07-31T14:19:49;99125.47;;;24.56;71.51
13080;BME280;6606;49.154;9.280;2023-07-31T14:22:31;99113.59;;;24.79;70.21
13080;BME280;6606;49.154;9.280;2023-07-31T14:25:14;99110.03;;;24.93;70.31
13080;BME280;6606;49.154;9.280;2023-07-31T14:27:57;99102.06;;;24.55;68.80
13080;BME280;6606;49.154;9.280;2023-07-31T14:30:39;99107.63;;;24.39;71.66
13080;BME280;6606;49.154;9.280;2023-07-31T14:33:20;99108.50;;;24.40;73.51
13080;BME280;6606;49.154;9.280;2023-07-31T14:36:02;99116.81;;;24.38;74.13
13080;BME280;6606;49.154;9.280;2023-07-31T14:38:44;99104.00;;;24.02;77.21
13080;BME280;6606;49.154;9.280;2023-07-31T14:41:26;99109.34;;;23.73;78.34
13080;BME280;6606;49.154;9.280;2023-07-31T14:44:09;99113.47;;;23.68;80.43
13080;BME280;6606;49.154;9.280;2023-07-31T14:46:51;99120.94;;;23.66;78.38
13080;BME280;6606;49.154;9.280;2023-07-31T14:49:32;99109.00;;;23.38;80.21
13080;BME280;6606;49.154;9.280;2023-07-31T14:52:14;99115.50;;;23.29;80.23
13080;BME280;6606;49.154;9.280;2023-07-31T14:54:56;99109.69;;;23.09;81.77
13080;BME280;6606;49.154;9.280;2023-07-31T14:57:38;99103.69;;;23.21;83.62
13080;BME280;6606;49.154;9.280;2023-07-31T15:00:21;99105.91;;;23.41;82.24
13080;BME280;6606;49.154;9.280;2023-07-31T15:03:30;99103.78;;;23.51;81.94
13080;BME280;6606;49.154;9.280;2023-07-31T15:06:11;99098.81;;;23.78;80.87
13080;BME280;6606;49.154;9.280;2023-07-31T15:08:53;99092.66;;;23.46;80.63
13080;BME280;6606;49.154;9.280;2023-07-31T15:11:35;99093.16;;;23.64;79.28
13080;BME280;6606;49.154;9.280;2023-07-31T15:14:17;99084.69;;;23.82;81.22
13080;BME280;6606;49.154;9.280;2023-07-31T15:17:00;99074.75;;;23.75;79.35
13080;BME280;6606;49.154;9.280;2023-07-31T15:19:41;99069.66;;;24.24;79.18
13080;BME280;6606;49.154;9.280;2023-07-31T15:22:23;99059.56;;;24.03;76.78
13080;BME280;6606;49.154;9.280;2023-07-31T15:25:07;99055.63;;;23.91;83.00
13080;BME280;6606;49.154;9.280;2023-07-31T15:27:49;99047.69;;;24.04;81.17
13080;BME280;6606;49.154;9.280;2023-07-31T15:30:30;99041.59;;;24.32;80.26
13080;BME280;6606;49.154;9.280;2023-07-31T15:33:15;99045.66;;;24.57;75.09
13080;BME280;6606;49.154;9.280;2023-07-31T15:35:56;99038.19;;;25.02;74.15
13080;BME280;6606;49.154;9.280;2023-07-31T15:38:38;99038.31;;;25.37;74.22
13080;BME280;6606;49.154;9.280;2023-07-31T15:41:20;99047.91;;;25.12;76.17
13080;BME280;6606;49.154;9.280;2023-07-31T15:44:02;99038.09;;;25.32;74.81
13080;BME280;6606;49.154;9.280;2023-07-31T15:46:43;99035.75;;;25.08;74.36
13080;BME280;6606;49.154;9.280;2023-07-31T15:49:26;99040.66;;;24.97;75.90
13080;BME280;6606;49.154;9.280;2023-07-31T15:52:08;99028.75;;;25.20;72.92
13080;BME280;6606;49.154;9.280;2023-07-31T15:54:50;99022.31;;;25.49;70.75
13080;BME280;6606;49.154;9.280;2023-07-31T15:57:32;99017.00;;;25.91;67.50
13080;BME280;6606;49.154;9.280;2023-07-31T16:00:14;99011.63;;;25.48;64.46
13080;BME280;6606;49.154;9.280;2023-07-31T16:02:56;99005.53;;;25.74;64.09
13080;BME280;6606;49.154;9.280;2023-07-31T16:05:39;99000.59;;;25.56;63.76
13080;BME280;6606;49.154;9.280;2023-07-31T16:08:21;99011.84;;;25.46;66.38
13080;BME280;6606;49.154;9.280;2023-07-31T16:11:03;99023.28;;;25.35;66.39
13080;BME280;6606;49.154;9.280;2023-07-31T16:13:44;99028.13;;;24.96;70.05
13080;BME280;6606;49.154;9.280;2023-07-31T16:16:26;99028.16;;;24.60;72.73
13080;BME280;6606;49.154;9.280;2023-07-31T16:19:08;99013.81;;;24.15;75.43
13080;BME280;6606;49.154;9.280;2023-07-31T16:21:52;99013.19;;;23.98;75.92
13080;BME280;6606;49.154;9.280;2023-07-31T16:24:33;99008.84;;;23.89;79.70
13080;BME280;6606;49.154;9.280;2023-07-31T16:27:16;99014.38;;;23.66;80.56
13080;BME280;6606;49.154;9.280;2023-07-31T16:29:59;99014.50;;;23.35;83.75
13080;BME280;6606;49.154;9.280;2023-07-31T16:32:41;99016.63;;;23.24;84.13
13080;BME280;6606;49.154;9.280;2023-07-31T16:35:23;99013.09;;;23.39;85.25
13080;BME280;6606;49.154;9.280;2023-07-31T16:38:06;99004.31;;;23.37;88.48
13080;BME280;6606;49.154;9.280;2023-07-31T16:40:47;98995.91;;;23.32;89.87
13080;BME280;6606;49.154;9.280;2023-07-31T16:43:29;99003.13;;;23.39;89.94
13080;BME280;6606;49.154;9.280;2023-07-31T16:46:11;98986.56;;;23.49;86.93
13080;BME280;6606;49.154;9.280;2023-07-31T16:48:53;98986.00;;;23.39;87.64
13080;BME280;6606;49.154;9.280;2023-07-31T16:51:35;98994.94;;;23.24;90.02
13080;BME280;6606;49.154;9.280;2023-07-31T16:54:18;98998.69;;;23.23;90.43
13080;BME280;6606;49.154;9.280;2023-07-31T16:56:59;99000.81;;;23.28;90.25
13080;BME280;6606;49.154;9.280;2023-07-31T16:59:41;98992.66;;;23.13;93.79
13080;BME280;6606;49.154;9.280;2023-07-31T17:02:23;98973.03;;;23.11;95.79
13080;BME280;6606;49.154;9.280;2023-07-31T17:05:06;98972.56;;;23.08;94.25
13080;BME280;6606;49.154;9.280;2023-07-31T17:07:48;98980.50;;;23.09;93.37
13080;BME280;6606;49.154;9.280;2023-07-31T17:10:31;98973.03;;;23.11;94.82
13080;BME280;6606;49.154;9.280;2023-07-31T17:13:13;98985.31;;;22.99;95.84
13080;BME280;6606;49.154;9.280;2023-07-31T17:15:54;98979.91;;;22.99;99.78
13080;BME280;6606;49.154;9.280;2023-07-31T17:18:36;98978.22;;;22.75;100.00
13080;BME280;6606;49.154;9.280;2023-07-31T17:21:18;98982.13;;;22.72;100.00
13080;BME280;6606;49.154;9.280;2023-07-31T17:24:00;98980.53;;;22.63;100.00
13080;BME280;6606;49.154;9.280;2023-07-31T17:26:43;98990.59;;;22.46;100.00
13080;BME280;6606;49.154;9.280;2023-07-31T17:29:27;98992.28;;;22.16;100.00
13080;BME280;6606;49.154;9.280;2023-07-31T17:32:09;98985.28;;;21.90;100.00
13080;BME280;6606;49.154;9.280;2023-07-31T17:34:51;98987.38;;;21.80;100.00
13080;BME280;6606;49.154;9.280;2023-07-31T17:37:33;98997.19;;;21.73;100.00
13080;BME280;6606;49.154;9.280;2023-07-31T17:40:14;98996.56;;;21.38;100.00
13080;BME280;6606;49.154;9.280;2023-07-31T17:42:58;98987.63;;;21.13;100.00
13080;BME280;6606;49.154;9.280;2023-07-31T17:45:39;98996.25;;;21.00;100.00
13080;BME280;6606;49.154;9.280;2023-07-31T17:48:21;98996.59;;;20.89;100.00
13080;BME280;6606;49.154;9.280;2023-07-31T17:51:03;98993.34;;;20.77;100.00
13080;BME280;6606;49.154;9.280;2023-07-31T17:53:45;98992.81;;;20.57;100.00
13080;BME280;6606;49.154;9.280;2023-07-31T17:56:27;98995.50;;;20.57;100.00
13080;BME280;6606;49.154;9.280;2023-07-31T17:59:10;99004.63;;;20.56;100.00
13080;BME280;6606;49.154;9.280;2023-07-31T18:01:52;99011.00;;;20.55;100.00
13080;BME280;6606;49.154;9.280;2023-07-31T18:04:34;99008.66;;;20.52;100.00
13080;BME280;6606;49.154;9.280;2023-07-31T18:07:16;99006.63;;;20.46;100.00